Time;durP1;ratioP1;P1;durP2;ratioP2;P2;SDS_P1;SDS_P2;PMS_P1;PMS_P2;Temp;Humidity;BMP_temperature;BMP_pressure;BME280_temperature;BME280_humidity;BME280_pressure;Samples;Min_cycle;Max_cycle;Signal;HPM_P1;HPM_P2
2022/10/03 00:01:04;;;;;;;17.77;2.17;;;;;;;9.82;100.00;101553.06;5997877;28;20035;-67
2022/10/03 00:04:27;;;;;;;11.40;2.00;;;;;;;9.82;100.00;101563.66;5996728;28;20054;-66
2022/10/03 00:07:31;;;;;;;11.15;1.60;;;;;;;9.77;100.00;101569.34;6002358;28;20030;-66
2022/10/03 00:11:08;;;;;;;11.18;1.83;;;;;;;9.68;100.00;101558.59;6001591;28;20065;-66
2022/10/03 00:14:27;;;;;;;11.75;2.53;;;;;;;9.54;100.00;101555.22;5994031;28;20046;-67
2022/10/03 00:17:41;;;;;;;13.63;2.20;;;;;;;9.51;100.00;101560.75;5999981;28;20037;-67
2022/10/03 00:20:46;;;;;;;12.15;2.17;;;;;;;9.53;100.00;101573.91;6001436;28;20485;-67
2022/10/03 00:23:56;;;;;;;12.40;2.05;;;;;;;9.48;100.00;101576.06;6001254;28;20070;-67
2022/10/03 00:26:57;;;;;;;11.70;3.08;;;;;;;9.31;100.00;101563.25;6007700;28;20042;-67
2022/10/03 00:29:55;;;;;;;;;;;;;;;9.35;100.00;101581.44;6000981;28;20035;-67
2022/10/03 00:33:20;;;;;;;10.68;1.90;;;;;;;9.37;100.00;101589.28;6001195;28;19925;-67
2022/10/03 00:36:49;;;;;;;11.88;2.20;;;;;;;9.39;100.00;101588.19;6003413;28;20101;-67
2022/10/03 00:40:14;;;;;;;14.45;2.38;;;;;;;9.37;100.00;101579.53;5996003;28;20077;-67
2022/10/03 00:43:30;;;;;;;18.65;2.22;;;;;;;9.46;100.00;101604.44;6002022;28;20047;-67
2022/10/03 00:46:38;;;;;;;13.98;2.47;;;;;;;9.50;100.00;101598.81;6001368;28;20474;-67
2022/10/03 00:49:41;;;;;;;12.13;2.20;;;;;;;9.50;100.00;101609.41;6000537;28;20447;-67
2022/10/03 00:53:11;;;;;;;14.68;2.65;;;;;;;9.56;100.00;101603.63;6000830;28;20035;-67
2022/10/03 00:56:15;;;;;;;10.80;1.90;;;;;;;9.66;100.00;101600.25;6000141;28;20066;-67
2022/10/03 00:59:52;;;;;;;11.63;2.00;;;;;;;9.73;100.00;101604.13;6001472;28;20049;-67
2022/10/03 01:02:51;;;;;;;12.88;2.08;;;;;;;9.84;100.00;101598.81;5980156;28;20130;-67
2022/10/03 01:06:18;;;;;;;11.38;2.15;;;;;;;9.89;100.00;101601.97;6001029;28;20042;-67
2022/10/03 01:09:20;;;;;;;8.23;1.95;;;;;;;9.94;100.00;101605.13;5990678;28;20062;-67
2022/10/03 01:12:34;;;;;;;8.77;2.05;;;;;;;9.94;100.00;101605.13;6000547;28;20034;-67
2022/10/03 01:15:50;;;;;;;15.93;1.88;;;;;;;9.96;100.00;101611.97;6004583;28;20027;-67
2022/10/03 01:19:26;;;;;;;9.65;1.60;;;;;;;10.06;100.00;101617.38;6017111;28;20094;-67
2022/10/03 01:22:35;;;;;;;10.93;2.00;;;;;;;9.94;100.00;101603.31;6014870;28;20129;-67
2022/10/03 01:25:52;;;;;;;13.05;2.00;;;;;;;9.97;100.00;101612.81;6000800;28;20137;-67
2022/10/03 01:32:25;;;;;;;12.32;2.38;;;;;;;10.08;100.00;101626.06;5998269;28;20031;-67
2022/10/03 01:35:48;;;;;;;9.25;2.00;;;;;;;10.06;100.00;101627.97;5999009;28;20517;-67
2022/10/03 01:39:13;;;;;;;12.68;2.33;;;;;;;10.10;100.00;101642.69;5999951;28;20047;-67
2022/10/03 01:42:09;;;;;;;13.20;1.60;;;;;;;10.10;100.00;101642.69;6017334;28;20030;-67
2022/10/03 01:45:39;;;;;;;13.73;1.90;;;;;;;10.12;100.00;101643.41;6016562;28;20046;-67
2022/10/03 01:48:58;;;;;;;14.85;2.03;;;;;;;10.06;100.00;101642.09;6000056;28;20031;-67
2022/10/03 01:52:02;;;;;;;16.50;2.13;;;;;;;10.03;100.00;101644.13;5994242;28;20065;-67
2022/10/03 01:55:04;;;;;;;9.43;2.00;;;;;;;9.99;100.00;101645.34;5997971;28;20031;-67
2022/10/03 01:58:05;;;;;;;8.30;1.83;;;;;;;9.89;100.00;101639.88;5998832;28;20046;-67
2022/10/03 02:01:10;;;;;;;9.07;2.05;;;;;;;9.94;100.00;101642.22;5998031;28;20161;-67
2022/10/03 02:04:44;;;;;;;10.63;2.30;;;;;;;9.97;100.00;101650.75;5999759;28;20069;-67
2022/10/03 02:07:54;;;;;;;8.40;1.60;;;;;;;9.98;100.00;101659.53;6009140;28;20092;-67
2022/10/03 02:11:08;;;;;;;11.07;2.47;;;;;;;9.99;100.00;101664.72;6020538;28;20074;-67
2022/10/03 02:14:15;;;;;;;12.00;1.88;;;;;;;9.94;100.00;101663.41;6014219;28;20478;-67
2022/10/03 02:17:17;;;;;;;8.10;1.45;;;;;;;9.99;100.00;101672.69;5999832;28;20413;-67
2022/10/03 02:20:26;;;;;;;9.90;1.55;;;;;;;9.98;100.00;101675.44;5998842;28;20038;-67
2022/10/03 02:23:25;;;;;;;9.43;1.80;;;;;;;9.94;100.00;101674.84;5999566;28;20030;-67
2022/10/03 02:26:52;;;;;;;12.15;1.35;;;;;;;9.94;100.00;101666.06;5997869;28;20110;-67
2022/10/03 02:30:09;;;;;;;14.18;2.20;;;;;;;9.93;100.00;101674.94;5998588;28;20149;-67
2022/10/03 02:33:42;;;;;;;14.82;2.40;;;;;;;9.98;100.00;101676.28;6001945;28;20070;-67
2022/10/03 02:36:56;;;;;;;12.07;2.03;;;;;;;9.99;100.00;101680.63;5997683;28;20046;-67
2022/10/03 02:40:29;;;;;;;16.02;2.67;;;;;;;9.96;100.00;101680.00;6004950;28;20815;-67
2022/10/03 02:43:40;;;;;;;18.10;2.65;;;;;;;9.81;100.00;101678.56;5986840;28;20041;-67
2022/10/03 02:47:07;;;;;;;8.65;1.38;;;;;;;9.84;100.00;101699.47;5998032;28;20126;-67
2022/10/03 02:50:31;;;;;;;11.18;2.05;;;;;;;9.75;100.00;101701.06;5997380;28;20039;-67
2022/10/03 02:54:02;;;;;;;11.18;1.83;;;;;;;9.63;100.00;101695.81;5998634;28;20030;-67
2022/10/03 02:57:27;;;;;;;12.27;1.80;;;;;;;9.47;100.00;101686.41;5996112;28;20051;-67
2022/10/03 03:00:38;;;;;;;15.20;2.35;;;;;;;9.52;100.00;101689.53;5998745;28;20113;-67
2022/10/03 03:04:19;;;;;;;14.40;2.53;;;;;;;9.48;100.00;101693.38;5997568;28;20105;-67
2022/10/03 03:07:21;;;;;;;14.38;2.25;;;;;;;9.52;100.00;101705.44;6000278;28;20439;-67
2022/10/03 03:10:28;;;;;;;8.00;2.00;;;;;;;9.46;100.00;101719.13;6016623;28;20036;-67
2022/10/03 03:13:47;;;;;;;8.80;2.08;;;;;;;9.43;100.00;101700.81;6001228;28;20037;-67
2022/10/03 03:16:49;;;;;;;8.15;1.83;;;;;;;9.58;100.00;101717.38;5998523;28;20057;-67
2022/10/03 03:19:58;;;;;;;10.50;1.60;;;;;;;9.59;100.00;101709.28;5997270;28;20061;-67
2022/10/03 03:23:00;;;;;;;11.85;2.20;;;;;;;9.51;100.00;101703.72;5997880;28;20121;-67
2022/10/03 03:26:14;;;;;;;8.20;1.77;;;;;;;9.41;100.00;101708.03;5999105;28;20042;-67
2022/10/03 03:29:34;;;;;;;7.47;1.65;;;;;;;9.34;100.00;101712.09;5997187;28;20034;-67
2022/10/03 03:32:46;;;;;;;8.20;2.35;;;;;;;9.26;100.00;101703.88;5997896;28;20546;-67
2022/10/03 03:35:58;;;;;;;19.63;1.77;;;;;;;9.26;100.00;101716.28;5997342;28;20031;-67
2022/10/03 03:39:29;;;;;;;13.07;1.80;;;;;;;9.23;100.00;101711.19;5997871;28;20035;-67
2022/10/03 03:42:54;;;;;;;17.40;2.47;;;;;;;9.23;100.00;101712.03;6001821;28;20074;-67
2022/10/03 03:46:12;;;;;;;5.30;1.40;;;;;;;9.27;100.00;101720.59;6001809;28;20038;-67
2022/10/03 03:49:29;;;;;;;13.98;1.88;;;;;;;9.28;100.00;101723.13;6001659;28;20490;-67
2022/10/03 03:52:43;;;;;;;14.48;2.05;;;;;;;9.29;100.00;101729.28;6002305;28;20031;-67
2022/10/03 03:55:58;;;;;;;11.90;2.58;;;;;;;9.20;100.00;101730.78;6002196;28;20490;-67
2022/10/03 03:59:12;;;;;;;10.55;2.00;;;;;;;9.28;100.00;101728.44;6002219;28;20070;-67
2022/10/03 04:02:26;;;;;;;7.90;1.70;;;;;;;9.30;100.00;101736.25;6001169;28;20073;-67
2022/10/03 04:05:36;;;;;;;8.52;1.80;;;;;;;9.28;100.00;101736.38;6002231;28;20030;-68
2022/10/03 04:08:46;;;;;;;14.38;1.98;;;;;;;9.29;100.00;101737.22;6001865;28;20031;-67
2022/10/03 04:12:07;;;;;;;10.95;2.95;;;;;;;9.34;100.00;101738.56;6016661;28;20371;-67
2022/10/03 04:15:15;;;;;;;10.45;2.03;;;;;;;9.32;100.00;101745.75;6001098;28;20034;-67
2022/10/03 04:18:58;;;;;;;9.65;1.92;;;;;;;9.29;100.00;101724.84;6000837;28;20512;-67
2022/10/03 04:22:38;;;;;;;7.22;1.60;;;;;;;9.45;100.00;101751.00;6001431;28;20053;-67
2022/10/03 04:25:45;;;;;;;9.55;1.70;;;;;;;9.45;100.00;101735.97;5999365;28;20051;-67
2022/10/03 04:28:54;;;;;;;8.82;2.13;;;;;;;9.38;100.00;101728.59;6001948;28;20034;-67
2022/10/03 04:32:08;;;;;;;9.93;2.05;;;;;;;9.42;100.00;101740.66;6002063;28;20065;-67
2022/10/03 04:35:22;;;;;;;14.95;2.58;;;;;;;9.30;100.00;101763.56;6006258;28;20534;-67
2022/10/03 04:39:02;;;;;;;9.07;1.75;;;;;;;9.27;100.00;101761.13;6001759;28;20454;-67
2022/10/03 04:42:15;;;;;;;15.45;2.47;;;;;;;9.22;100.00;101752.69;6018133;28;20034;-67
2022/10/03 04:45:49;;;;;;;10.68;1.80;;;;;;;9.13;100.00;101742.75;6016529;28;20386;-67
2022/10/03 04:48:56;;;;;;;9.50;1.92;;;;;;;9.02;100.00;101741.88;5999622;28;20039;-67
2022/10/03 04:51:59;;;;;;;8.25;1.80;;;;;;;9.00;100.00;101739.31;5999651;28;20038;-67
2022/10/03 04:55:34;;;;;;;9.40;2.35;;;;;;;8.92;100.00;101737.22;6001552;28;20113;-67
2022/10/03 04:58:39;;;;;;;4.85;2.00;;;;;;;8.90;100.00;101738.31;6001282;28;20081;-68
2022/10/03 05:01:43;;;;;;;10.35;2.20;;;;;;;8.79;100.00;101733.78;6000678;28;20121;-68
2022/10/03 05:04:43;;;;;;;7.75;1.83;;;;;;;8.85;100.00;101757.16;5989454;28;20414;-68
2022/10/03 05:08:11;;;;;;;12.63;1.90;;;;;;;8.77;100.00;101756.00;5999791;28;20475;-67
2022/10/03 05:11:32;;;;;;;10.73;1.80;;;;;;;8.71;100.00;101761.72;5995853;28;20046;-67
2022/10/03 05:15:01;;;;;;;10.05;1.77;;;;;;;8.64;100.00;101766.59;5990485;28;20070;-67
2022/10/03 05:18:46;;;;;;;12.93;2.13;;;;;;;8.65;100.00;101770.94;5997999;28;20035;-67
2022/10/03 05:21:47;;;;;;;15.18;1.85;;;;;;;8.72;100.00;101777.50;5954319;28;20035;-68
2022/10/03 05:25:09;;;;;;;15.57;2.20;;;;;;;8.63;100.00;101772.00;6009029;28;20038;-68
2022/10/03 05:28:35;;;;;;;11.18;1.98;;;;;;;8.87;100.00;101780.84;6000795;28;20065;-67
2022/10/03 05:31:56;;;;;;;6.30;1.95;;;;;;;8.90;100.00;101768.25;5999998;28;20034;-67
2022/10/03 05:35:02;;;;;;;15.48;1.95;;;;;;;8.93;100.00;101775.97;5999427;28;20459;-68
2022/10/03 05:38:19;;;;;;;4.90;1.58;;;;;;;9.07;100.00;101788.22;6000221;28;20026;-68
2022/10/03 05:41:36;;;;;;;10.15;1.83;;;;;;;9.17;100.00;101789.22;5999865;28;20410;-68
2022/10/03 05:44:44;;;;;;;8.65;1.80;;;;;;;9.21;100.00;101780.13;6000171;28;20629;-67
2022/10/03 05:48:17;;;;;;;13.80;1.60;;;;;;;9.29;100.00;101798.94;6000401;28;20031;-68
2022/10/03 05:51:41;;;;;;;5.60;1.40;;;;;;;9.30;100.00;101805.91;5998507;28;20529;-67
2022/10/03 05:54:58;;;;;;;7.22;1.58;;;;;;;9.34;100.00;101812.69;5999921;28;20538;-67
2022/10/03 05:58:10;;;;;;;11.48;1.65;;;;;;;9.39;100.00;101815.84;6000013;28;20050;-67
2022/10/03 06:01:44;;;;;;;8.98;1.85;;;;;;;9.41;100.00;101815.72;6003785;28;20053;-66
2022/10/03 06:04:54;;;;;;;6.22;1.63;;;;;;;9.34;100.00;101820.63;5999724;28;20047;-67
2022/10/03 06:08:08;;;;;;;8.73;1.77;;;;;;;9.32;100.00;101819.88;5991700;28;20161;-67
2022/10/03 06:11:40;;;;;;;9.65;1.90;;;;;;;9.39;100.00;101815.84;6003225;28;20035;-67
2022/10/03 06:15:03;;;;;;;8.15;1.90;;;;;;;9.40;100.00;101822.81;5991034;28;20121;-67
2022/10/03 06:18:20;;;;;;;8.68;2.13;;;;;;;9.40;100.00;101830.75;5999055;28;20077;-67
2022/10/03 06:21:53;;;;;;;13.20;1.92;;;;;;;9.41;100.00;101829.81;5999000;28;20125;-66
2022/10/03 06:25:05;;;;;;;;;;;;;;;9.62;100.00;101830.03;5999499;28;20041;-67
2022/10/03 06:28:29;;;;;;;6.20;1.80;;;;;;;9.72;100.00;101841.66;5997992;28;19920;-68
2022/10/03 06:31:59;;;;;;;12.25;1.63;;;;;;;9.89;100.00;101849.19;5998664;28;20057;-67
2022/10/03 06:34:57;;;;;;;9.27;2.00;;;;;;;10.02;100.00;101851.78;5997421;28;20478;-67
2022/10/03 06:38:10;;;;;;;10.63;2.25;;;;;;;10.12;100.00;101853.66;6003425;28;20406;-67
2022/10/03 06:41:11;;;;;;;6.53;1.48;;;;;;;10.36;100.00;101845.66;5997909;28;20066;-67
2022/10/03 06:44:06;;;;;;;6.53;1.52;;;;;;;10.57;100.00;101841.34;6001418;28;20060;-67
2022/10/03 06:47:30;;;;;;;11.50;1.53;;;;;;;10.77;100.00;101851.28;5998399;28;20471;-66
2022/10/03 06:50:26;;;;;;;10.57;1.55;;;;;;;11.09;100.00;101845.25;5999017;28;20026;-67
2022/10/03 06:53:42;;;;;;;9.43;1.52;;;;;;;11.17;100.00;101832.22;5998295;28;20038;-67
2022/10/03 06:57:03;;;;;;;11.25;1.83;;;;;;;11.35;100.00;101836.91;5997072;28;20042;-67
2022/10/03 07:00:05;;;;;;;11.75;1.67;;;;;;;11.59;100.00;101846.50;6011102;28;20030;-67
2022/10/03 07:03:36;;;;;;;5.18;1.67;;;;;;;11.65;100.00;101846.88;6020561;28;20450;-67
2022/10/03 07:06:47;;;;;;;7.50;1.02;;;;;;;11.57;99.88;101851.09;5996239;28;20542;-67
2022/10/03 07:10:17;;;;;;;5.65;1.33;;;;;;;11.46;99.97;101837.84;5989647;28;20209;-67
2022/10/03 07:13:22;;;;;;;8.65;1.30;;;;;;;11.46;100.00;101854.63;6001026;28;20034;-67
2022/10/03 07:16:48;;;;;;;11.85;1.60;;;;;;;11.40;100.00;101857.78;6001409;28;20058;-67
2022/10/03 07:19:49;;;;;;;7.75;2.42;;;;;;;11.22;100.00;101853.94;6002427;28;20077;-67
2022/10/03 07:23:19;;;;;;;8.05;1.30;;;;;;;11.17;100.00;101874.72;6002205;28;20475;-67
2022/10/03 07:26:33;;;;;;;7.35;1.95;;;;;;;11.44;100.00;101872.47;6001820;28;20063;-67
2022/10/03 07:29:47;;;;;;;8.10;1.25;;;;;;;11.71;100.00;101864.97;6002641;28;20046;-67
2022/10/03 07:33:04;;;;;;;8.95;1.63;;;;;;;11.98;98.86;101872.53;6001448;28;20039;-66
2022/10/03 07:39:55;;;;;;;8.00;1.50;;;;;;;12.48;96.74;101881.56;6016029;28;20740;-67
2022/10/03 07:43:09;;;;;;;10.88;2.83;;;;;;;12.60;94.55;101882.38;6021463;28;20165;-67
2022/10/03 07:46:13;;;;;;;;;;;;;;;12.73;93.69;101875.88;6014298;28;20121;-67
2022/10/03 07:49:43;;;;;;;5.03;0.98;;;;;;;12.75;92.90;101881.88;6002549;28;20670;-67
2022/10/03 07:52:55;;;;;;;10.68;1.92;;;;;;;12.83;92.12;101884.75;6002229;28;20027;-67
2022/10/03 07:55:59;;;;;;;7.85;1.83;;;;;;;12.94;91.61;101889.13;6016974;28;20032;-67
2022/10/03 07:59:03;;;;;;;7.28;1.40;;;;;;;12.89;92.10;101881.56;6002589;28;20041;-67
2022/10/03 08:01:58;;;;;;;8.15;2.20;;;;;;;12.95;91.59;101889.03;5999727;28;20174;-67
2022/10/03 08:05:16;;;;;;;7.43;1.40;;;;;;;13.07;92.47;101877.31;6002169;28;20426;-66
2022/10/03 08:08:36;;;;;;;13.65;2.00;;;;;;;13.33;90.70;101890.19;6001740;28;20050;-67
2022/10/03 08:11:50;;;;;;;6.38;1.30;;;;;;;13.36;89.59;101892.59;6011541;28;20045;-67
2022/10/03 08:15:29;;;;;;;7.20;1.60;;;;;;;13.65;90.92;101890.84;6001607;28;20089;-66
2022/10/03 08:18:30;;;;;;;;;;;;;;;13.71;89.81;101885.81;5988079;28;20051;-67
2022/10/03 08:22:04;;;;;;;13.02;1.38;;;;;;;13.77;88.98;101884.44;6001371;28;20349;-67
2022/10/03 08:25:06;;;;;;;4.85;1.40;;;;;;;13.97;88.92;101880.78;5980110;28;20043;-67
2022/10/03 08:28:28;;;;;;;10.02;1.52;;;;;;;14.09;87.59;101871.69;6000334;28;20027;-67
2022/10/03 08:31:28;;;;;;;8.95;2.47;;;;;;;14.23;86.04;101884.59;6003644;28;20039;-67
2022/10/03 08:34:33;;;;;;;;;;;;;;;14.17;86.17;101886.97;6000619;28;20034;-67
2022/10/03 08:38:06;;;;;;;5.75;1.48;;;;;;;14.30;85.29;101888.38;6000038;28;20281;-67
2022/10/03 08:41:23;;;;;;;11.13;1.70;;;;;;;14.26;85.04;101896.81;6000491;28;20117;-67
2022/10/03 08:44:32;;;;;;;6.07;1.02;;;;;;;14.36;85.72;101883.47;6000084;28;20035;-67
2022/10/03 08:48:03;;;;;;;10.65;1.63;;;;;;;14.45;85.16;101891.50;6000908;28;20035;-67
2022/10/03 08:51:33;;;;;;;9.88;1.58;;;;;;;14.64;84.65;101901.31;6000320;28;20414;-67
2022/10/03 08:54:50;;;;;;;9.77;1.90;;;;;;;14.68;84.48;101908.88;6000834;28;20039;-67
2022/10/03 08:57:51;;;;;;;7.43;1.00;;;;;;;14.72;83.58;101904.09;6000219;28;20038;-67
2022/10/03 09:01:17;;;;;;;17.23;1.88;;;;;;;14.72;83.87;101904.94;6000441;28;20034;-67
2022/10/03 09:04:34;;;;;;;10.73;1.40;;;;;;;14.81;83.69;101909.41;6000254;28;20031;-67
2022/10/03 09:07:38;;;;;;;11.95;1.42;;;;;;;14.53;83.66;101891.63;6000645;28;20030;-66
2022/10/03 09:11:07;;;;;;;14.65;1.90;;;;;;;14.61;83.95;101915.78;5999317;28;20038;-67
2022/10/03 09:14:31;;;;;;;11.18;1.45;;;;;;;14.61;84.10;101914.94;6022270;28;20811;-67
2022/10/03 09:17:32;;;;;;;7.25;1.23;;;;;;;14.77;83.70;101912.50;6023842;28;20030;-67
2022/10/03 09:20:48;;;;;;;9.63;1.52;;;;;;;14.99;83.76;101906.84;6023332;28;20478;-67
2022/10/03 09:24:12;;;;;;;8.40;1.73;;;;;;;15.16;82.81;101886.53;6015971;28;20035;-67
2022/10/03 09:27:32;;;;;;;10.38;1.63;;;;;;;15.37;80.58;101904.03;6000519;28;20035;-67
2022/10/03 09:30:52;;;;;;;14.32;1.70;;;;;;;15.43;79.66;101908.78;6003813;28;20038;-67
2022/10/03 09:34:06;;;;;;;11.27;1.25;;;;;;;15.31;81.38;101912.63;5987644;28;20045;-67
2022/10/03 09:37:11;;;;;;;11.77;1.45;;;;;;;15.46;80.41;101911.16;5999872;28;20035;-67
2022/10/03 09:40:28;;;;;;;9.30;1.13;;;;;;;15.86;78.08;101915.31;5997799;28;20418;-67
2022/10/03 09:43:53;;;;;;;14.50;1.88;;;;;;;15.75;76.79;101908.34;5999786;28;20030;-67
2022/10/03 09:47:29;;;;;;;6.28;1.20;;;;;;;15.58;79.05;101914.50;5990366;28;20062;-67
2022/10/03 09:51:02;;;;;;;9.07;1.13;;;;;;;15.10;79.34;101917.34;5992973;28;20054;-66
2022/10/03 09:54:09;;;;;;;5.43;1.17;;;;;;;14.87;81.26;101918.66;6015281;28;20548;-67
2022/10/03 09:57:26;;;;;;;11.13;1.85;;;;;;;14.72;81.51;101914.78;6011687;28;20617;-66
2022/10/03 10:00:29;;;;;;;7.65;1.30;;;;;;;14.72;81.60;101910.28;5997644;28;20905;-67
2022/10/03 10:03:36;;;;;;;12.45;1.40;;;;;;;14.63;81.70;101915.63;5998466;28;20039;-66
2022/10/03 10:06:36;;;;;;;9.93;1.52;;;;;;;14.74;83.04;101919.00;5999703;28;20038;-67
2022/10/03 10:10:22;;;;;;;5.82;1.05;;;;;;;14.66;82.58;101915.34;5999882;28;20391;-67
2022/10/03 10:13:26;;;;;;;8.57;1.27;;;;;;;14.75;82.70;101920.69;5999683;28;20046;-67
2022/10/03 10:16:52;;;;;;;6.97;1.50;;;;;;;15.05;82.97;101924.97;6022854;28;20060;-67
2022/10/03 10:19:55;;;;;;;8.70;1.60;;;;;;;15.18;81.54;101919.28;6022613;28;20030;-66
2022/10/03 10:22:56;;;;;;;9.07;1.60;;;;;;;14.95;81.59;101916.13;6003529;28;20029;-67
2022/10/03 10:26:14;;;;;;;7.50;1.45;;;;;;;14.74;83.14;101916.31;5998305;28;20038;-67
2022/10/03 10:29:33;;;;;;;8.32;1.50;;;;;;;14.57;85.15;101921.53;6004936;28;20045;-66
2022/10/03 10:33:03;;;;;;;9.10;2.30;;;;;;;14.18;87.49;101932.22;5997755;28;20537;-67
2022/10/03 10:36:17;;;;;;;8.18;1.40;;;;;;;13.85;90.07;101921.91;5999396;28;20050;-67
2022/10/03 10:39:13;;;;;;;7.15;1.00;;;;;;;13.78;90.34;101934.09;5992665;28;20038;-67
2022/10/03 10:42:43;;;;;;;7.70;1.13;;;;;;;14.03;90.82;101927.41;6012746;28;20429;-66
2022/10/03 10:45:49;;;;;;;7.85;1.00;;;;;;;13.99;90.12;101905.50;6006036;28;20046;-66
2022/10/03 10:48:56;;;;;;;7.82;1.40;;;;;;;14.14;89.76;101914.78;5997806;28;20061;-66
2022/10/03 10:52:15;;;;;;;7.70;1.60;;;;;;;14.73;85.97;101916.47;5996441;28;20032;-66
2022/10/03 10:55:26;;;;;;;2.85;0.82;;;;;;;15.03;83.45;101908.22;6002550;28;20398;-67
2022/10/03 10:59:00;;;;;;;4.43;0.98;;;;;;;15.35;82.07;101907.84;6019392;28;20066;-67
2022/10/03 11:02:07;;;;;;;3.55;1.00;;;;;;;15.58;81.13;101908.31;6005296;28;20546;-67
2022/10/03 11:05:25;;;;;;;6.38;1.17;;;;;;;15.84;79.47;101920.84;6000919;28;20027;-67
2022/10/03 11:08:36;;;;;;;4.07;0.90;;;;;;;16.02;78.11;101912.81;5998155;28;20038;-66
2022/10/03 11:12:08;;;;;;;9.30;1.55;;;;;;;16.02;77.71;101892.25;5991897;28;20090;-66
2022/10/03 11:15:42;;;;;;;5.53;1.10;;;;;;;16.30;79.64;101897.53;6019385;28;20034;-67
2022/10/03 11:18:51;;;;;;;4.38;0.70;;;;;;;16.51;76.40;101890.84;6006308;28;20161;-67
2022/10/03 11:22:18;;;;;;;7.60;1.23;;;;;;;16.39;76.02;101883.19;5996357;28;20031;-66
2022/10/03 11:25:42;;;;;;;12.50;1.70;;;;;;;16.37;75.13;101874.50;5998270;28;20146;-66
2022/10/03 11:29:06;;;;;;;7.70;1.92;;;;;;;16.56;75.78;101891.25;6021271;28;20035;-67
2022/10/03 11:32:39;;;;;;;6.65;1.25;;;;;;;17.01;74.39;101876.81;5996330;28;20046;-67
2022/10/03 11:35:54;;;;;;;5.85;0.90;;;;;;;17.11;71.00;101885.56;5997772;28;20050;-67
2022/10/03 11:39:40;;;;;;;5.70;1.00;;;;;;;16.89;71.75;101872.72;5997045;28;20043;-66
2022/10/03 11:43:03;;;;;;;5.72;0.80;;;;;;;16.56;71.31;101899.28;6001335;28;20042;-67
2022/10/03 11:46:43;;;;;;;4.50;0.90;;;;;;;16.65;72.83;101901.03;6012110;28;20046;-67
2022/10/03 11:50:06;;;;;;;8.52;1.15;;;;;;;16.50;71.85;101897.19;6012872;28;20042;-66
2022/10/03 11:53:22;;;;;;;5.22;0.80;;;;;;;16.03;73.03;101901.13;5984953;28;20509;-66
2022/10/03 11:56:32;;;;;;;3.10;0.80;;;;;;;15.65;74.50;101888.00;6008716;28;20093;-67
2022/10/03 11:59:47;;;;;;;6.95;0.95;;;;;;;15.56;75.53;101899.59;6000004;28;20038;-66
2022/10/03 12:02:54;;;;;;;4.70;1.10;;;;;;;15.45;76.29;101892.59;6001627;28;20471;-66
2022/10/03 12:08:53;;;;;;;8.90;1.00;;;;;;;15.42;77.43;101901.75;6008708;28;20442;-66
2022/10/03 12:09:19;;;;;;;7.25;1.00;;;;;;;15.31;76.18;101898.41;6001964;28;20034;-66
2022/10/03 12:12:43;;;;;;;6.38;0.82;;;;;;;15.37;77.09;101896.00;6000587;28;20073;-67
2022/10/03 12:15:45;;;;;;;7.63;1.02;;;;;;;15.51;75.66;101894.72;6012090;28;20190;-67
2022/10/03 12:18:43;;;;;;;6.50;1.00;;;;;;;15.75;74.90;101888.78;6001236;28;20230;-67
2022/10/03 12:21:51;;;;;;;3.85;1.30;;;;;;;16.03;74.38;101885.06;6001113;28;20521;-67
2022/10/03 12:24:48;;;;;;;10.63;1.48;;;;;;;16.15;72.70;101881.16;6000335;28;20117;-67
2022/10/03 12:28:13;;;;;;;5.68;1.27;;;;;;;16.23;73.14;101889.25;6001324;28;20078;-66
2022/10/03 12:31:23;;;;;;;5.47;1.30;;;;;;;16.32;72.69;101880.31;6004981;28;20019;-67
2022/10/03 12:34:38;;;;;;;4.38;0.77;;;;;;;16.31;72.57;101880.44;6006300;28;20085;-67
2022/10/03 12:37:43;;;;;;;7.47;1.40;;;;;;;16.34;73.98;101877.47;6001583;28;20031;-67
2022/10/03 12:40:42;;;;;;;5.25;0.90;;;;;;;16.37;73.07;101856.59;5999060;28;20355;-66
2022/10/03 12:43:46;;;;;;;9.63;2.15;;;;;;;16.67;71.71;101868.72;5999832;28;20081;-66
2022/10/03 12:46:54;;;;;;;5.25;1.23;;;;;;;17.05;71.38;101856.72;6000369;28;20038;-67
2022/10/03 12:50:22;;;;;;;5.53;1.42;;;;;;;17.15;71.07;101860.13;5987573;28;20041;-67
2022/10/03 12:53:18;;;;;;;5.97;1.00;;;;;;;17.62;69.07;101853.28;6000079;28;20034;-67
2022/10/03 12:56:32;;;;;;;5.93;1.20;;;;;;;17.75;65.49;101848.28;6000777;28;20475;-67
2022/10/03 12:59:39;;;;;;;4.43;0.60;;;;;;;17.80;65.55;101866.59;5999547;28;20031;-68
2022/10/03 13:02:36;;;;;;;6.80;1.08;;;;;;;17.68;65.92;101868.75;6000782;28;20056;-67
2022/10/03 13:05:58;;;;;;;4.28;1.02;;;;;;;17.36;67.82;101871.28;5999157;28;20081;-66
2022/10/03 13:09:15;;;;;;;5.72;1.50;;;;;;;17.17;68.49;101874.22;6015825;28;20049;-67
2022/10/03 13:12:23;;;;;;;6.78;0.98;;;;;;;16.67;69.80;101871.41;5998933;28;20542;-67
2022/10/03 13:15:39;;;;;;;3.78;1.00;;;;;;;16.54;71.73;101877.19;5998909;28;20054;-67
2022/10/03 13:18:42;;;;;;;5.63;1.02;;;;;;;16.52;71.67;101868.41;6020455;28;20086;-67
2022/10/03 13:22:02;;;;;;;5.50;1.25;;;;;;;16.39;71.80;101862.63;6018352;28;20039;-67
2022/10/03 13:25:03;;;;;;;6.38;1.20;;;;;;;16.29;71.71;101861.03;6000327;28;20058;-67
2022/10/03 13:28:06;;;;;;;3.08;0.60;;;;;;;16.29;71.19;101863.72;5992893;28;20489;-67
2022/10/03 13:31:23;;;;;;;3.13;0.88;;;;;;;16.31;71.68;101867.06;6013588;28;20073;-67
2022/10/03 13:34:22;;;;;;;3.13;0.98;;;;;;;16.66;72.06;101859.00;6010346;28;20039;-67
2022/10/03 13:37:30;;;;;;;4.25;0.88;;;;;;;16.98;68.84;101856.53;6000390;28;20093;-68
2022/10/03 13:40:29;;;;;;;5.40;1.05;;;;;;;16.59;68.39;101842.72;5998852;28;20026;-67
2022/10/03 13:43:35;;;;;;;4.97;1.13;;;;;;;16.42;69.82;101854.28;5998974;28;20467;-67
2022/10/03 13:46:43;;;;;;;3.85;1.00;;;;;;;16.26;70.53;101840.78;6000355;28;20035;-67
2022/10/03 13:50:03;;;;;;;5.13;1.02;;;;;;;16.24;71.56;101844.59;5999213;28;20078;-68
2022/10/03 13:53:34;;;;;;;3.67;0.90;;;;;;;16.52;70.77;101840.81;5999252;28;20023;-67
2022/10/03 13:56:53;;;;;;;4.25;1.00;;;;;;;16.75;69.73;101833.09;5998579;28;20031;-68
2022/10/03 14:00:10;;;;;;;5.35;0.88;;;;;;;16.66;70.46;101833.06;5998976;28;20031;-67
2022/10/03 14:03:25;;;;;;;7.63;1.15;;;;;;;16.71;70.54;101835.28;5999014;28;20035;-67
2022/10/03 14:06:47;;;;;;;3.20;0.70;;;;;;;17.22;68.37;101842.41;5998747;28;20145;-67
2022/10/03 14:10:11;;;;;;;5.78;0.95;;;;;;;17.48;66.86;101837.78;5998644;28;20038;-67
2022/10/03 14:13:15;;;;;;;5.47;0.75;;;;;;;17.39;65.70;101825.38;5994992;28;20038;-67
2022/10/03 14:16:40;;;;;;;5.93;1.23;;;;;;;17.43;66.02;101837.44;6000978;28;20027;-67
2022/10/03 14:19:48;;;;;;;3.85;0.73;;;;;;;17.54;66.69;101826.44;6022309;28;20626;-67
2022/10/03 14:22:50;;;;;;;6.32;1.20;;;;;;;17.86;65.80;101828.34;6021179;28;20030;-67
2022/10/03 14:25:55;;;;;;;4.20;0.93;;;;;;;17.80;64.94;101827.16;6023143;28;20034;-67
2022/10/03 14:28:59;;;;;;;5.35;0.90;;;;;;;17.70;65.65;101806.84;5999566;28;20043;-68
2022/10/03 14:32:22;;;;;;;7.22;1.10;;;;;;;17.95;64.92;101832.72;5998944;28;20045;-68
2022/10/03 14:35:32;;;;;;;5.00;1.00;;;;;;;17.45;66.80;101823.88;5999521;28;20466;-67
2022/10/03 14:39:08;;;;;;;3.88;0.70;;;;;;;17.34;67.12;101838.41;6000281;28;20070;-67
2022/10/03 14:42:04;;;;;;;3.88;0.88;;;;;;;17.39;66.83;101827.22;5997071;28;20030;-67
2022/10/03 14:45:22;;;;;;;5.07;1.10;;;;;;;17.64;65.39;101816.41;5999190;28;20530;-68
2022/10/03 14:48:43;;;;;;;9.95;0.90;;;;;;;17.46;66.68;101830.91;5997494;28;20023;-68
2022/10/03 14:51:46;;;;;;;4.22;0.73;;;;;;;17.74;65.88;101822.47;5998646;28;20031;-67
2022/10/03 14:54:42;;;;;;;3.25;0.95;;;;;;;17.97;65.62;101811.06;5997645;28;20031;-67
2022/10/03 14:57:48;;;;;;;3.03;0.68;;;;;;;17.80;65.12;101829.84;5998129;28;20088;-67
2022/10/03 15:00:49;;;;;;;3.65;0.75;;;;;;;17.81;64.50;101828.84;5996804;28;20046;-67
2022/10/03 15:03:56;;;;;;;2.30;0.60;;;;;;;17.70;65.25;101810.38;5998284;28;20034;-68
2022/10/03 15:06:53;;;;;;;6.15;1.17;;;;;;;17.91;64.59;101825.19;5997740;28;20037;-68
2022/10/03 15:09:51;;;;;;;4.50;0.98;;;;;;;17.78;64.59;101822.97;5999013;28;20054;-68